createdAt,value
2022-09-16T00:00:54.019Z,2.83
2022-09-16T00:03:21.851Z,3.03
2022-09-16T00:05:51.140Z,2.80
2022-09-16T00:08:20.432Z,3.10
2022-09-16T00:10:48.327Z,2.87
2022-09-16T00:13:16.132Z,3.20
2022-09-16T00:15:45.866Z,2.97
2022-09-16T00:18:14.876Z,2.75
2022-09-16T00:20:46.634Z,2.67
2022-09-16T00:23:14.502Z,2.75
2022-09-16T00:25:42.536Z,2.85
2022-09-16T00:28:10.421Z,2.53
2022-09-16T00:30:38.127Z,2.50
2022-09-16T00:33:07.281Z,2.30
2022-09-16T00:35:35.021Z,2.20
2022-09-16T00:38:02.752Z,2.47
2022-09-16T00:40:30.530Z,2.00
2022-09-16T00:43:00.091Z,2.40
2022-09-16T00:45:31.673Z,2.00
2022-09-16T00:48:01.489Z,1.92
2022-09-16T00:50:38.000Z,2.20
2022-09-16T00:53:07.193Z,2.00
2022-09-16T00:55:37.458Z,1.85
2022-09-16T00:58:08.041Z,2.10
2022-09-16T01:00:36.980Z,1.60
2022-09-16T01:03:05.430Z,2.10
2022-09-16T01:05:35.278Z,1.80
2022-09-16T01:08:03.425Z,2.00
2022-09-16T01:10:31.543Z,1.90
2022-09-16T01:13:01.823Z,2.38
2022-09-16T01:15:33.566Z,2.20
2022-09-16T01:18:13.115Z,2.50
2022-09-16T01:21:12.980Z,2.30
2022-09-16T01:24:13.556Z,2.15
2022-09-16T01:26:58.994Z,2.33
2022-09-16T01:29:51.891Z,1.77
2022-09-16T01:32:27.803Z,1.75
2022-09-16T01:35:02.724Z,2.05
2022-09-16T01:37:35.565Z,1.95
2022-09-16T01:40:09.017Z,1.90
2022-09-16T01:42:41.056Z,2.30
2022-09-16T01:45:14.249Z,2.10
2022-09-16T01:47:51.008Z,2.30
2022-09-16T01:50:24.235Z,2.13
2022-09-16T01:52:59.653Z,2.17
2022-09-16T01:55:31.059Z,2.10
2022-09-16T01:58:02.008Z,2.30
2022-09-16T02:00:31.404Z,2.28
2022-09-16T02:03:04.902Z,1.97
2022-09-16T02:05:35.885Z,2.20
2022-09-16T02:08:07.196Z,2.03
2022-09-16T02:10:37.656Z,1.98
2022-09-16T02:13:10.773Z,1.88
2022-09-16T02:15:39.726Z,2.00
2022-09-16T02:18:11.951Z,1.70
2022-09-16T02:20:42.588Z,1.90
2022-09-16T02:23:13.580Z,2.05
2022-09-16T02:25:43.620Z,2.20
2022-09-16T02:28:15.841Z,2.20
2022-09-16T02:30:45.261Z,1.90
2022-09-16T02:33:16.449Z,2.05
2022-09-16T02:35:47.572Z,2.10
2022-09-16T02:38:18.622Z,1.95
2022-09-16T02:40:49.474Z,2.03
2022-09-16T02:43:17.529Z,1.98
2022-09-16T02:45:48.462Z,2.03
2022-09-16T02:48:23.762Z,2.08
2022-09-16T02:50:54.976Z,2.00
2022-09-16T02:53:31.843Z,1.75
2022-09-16T02:56:02.236Z,1.92
2022-09-16T02:58:30.553Z,1.90
2022-09-16T03:00:58.972Z,1.73
2022-09-16T03:03:28.169Z,1.70
2022-09-16T03:06:16.560Z,1.42
2022-09-16T03:08:45.330Z,1.70
2022-09-16T03:11:29.940Z,1.50
2022-09-16T03:14:10.535Z,1.67
2022-09-16T03:16:46.206Z,1.75
2022-09-16T03:19:21.217Z,1.90
2022-09-16T03:21:56.254Z,1.80
2022-09-16T03:24:32.497Z,2.92
2022-09-16T03:27:04.806Z,2.15
2022-09-16T03:29:35.761Z,2.30
2022-09-16T03:32:08.869Z,2.42
2022-09-16T03:34:41.199Z,2.30
2022-09-16T03:37:11.770Z,2.42
2022-09-16T03:39:40.366Z,2.25
2022-09-16T03:42:11.417Z,2.38
2022-09-16T03:44:41.042Z,2.50
2022-09-16T03:47:09.060Z,2.50
2022-09-16T03:49:38.608Z,2.63
2022-09-16T03:52:07.076Z,2.83
2022-09-16T03:54:35.172Z,2.70
2022-09-16T03:57:03.194Z,2.70
2022-09-16T03:59:31.116Z,2.38
2022-09-16T04:01:58.983Z,2.60
2022-09-16T04:04:26.830Z,2.10
2022-09-16T04:06:56.107Z,2.45
2022-09-16T04:09:24.035Z,2.33
2022-09-16T04:11:51.846Z,2.60
2022-09-16T04:14:20.314Z,2.50
2022-09-16T04:16:48.143Z,2.15
2022-09-16T04:19:16.001Z,2.10
2022-09-16T04:21:44.038Z,2.10
2022-09-16T04:24:13.663Z,2.63
2022-09-16T04:26:41.690Z,2.50
2022-09-16T04:29:09.769Z,2.55
2022-09-16T04:31:37.855Z,2.10
2022-09-16T04:34:06.216Z,1.70
2022-09-16T04:36:34.173Z,2.00
2022-09-16T04:39:02.333Z,1.90
2022-09-16T04:41:31.459Z,1.77
2022-09-16T04:44:00.841Z,2.03
2022-09-16T04:46:30.227Z,1.90
2022-09-16T04:48:58.179Z,2.20
2022-09-16T04:51:27.369Z,2.10
2022-09-16T04:53:55.973Z,2.30
2022-09-16T04:56:25.902Z,2.00
2022-09-16T04:58:56.263Z,2.20
2022-09-16T05:01:25.337Z,2.47
2022-09-16T05:03:54.373Z,2.70
2022-09-16T05:06:24.071Z,3.08
2022-09-16T05:08:53.134Z,2.50
2022-09-16T05:11:22.218Z,2.60
2022-09-16T05:13:50.074Z,2.78
2022-09-16T05:16:20.402Z,2.85
2022-09-16T05:18:49.618Z,2.95
2022-09-16T05:21:18.911Z,2.83
2022-09-16T05:23:47.363Z,3.17
2022-09-16T05:26:17.670Z,3.53
2022-09-16T05:28:45.670Z,3.63
2022-09-16T05:31:14.841Z,2.70
2022-09-16T05:33:46.101Z,2.78
2022-09-16T05:36:16.082Z,2.83
2022-09-16T05:38:59.123Z,2.90
2022-09-16T05:41:32.280Z,3.00
2022-09-16T05:44:00.524Z,3.13
2022-09-16T05:46:29.521Z,2.80
2022-09-16T05:48:58.791Z,2.60
2022-09-16T05:51:26.811Z,2.88
2022-09-16T05:53:55.757Z,3.03
2022-09-16T05:56:25.802Z,2.60
2022-09-16T05:58:54.336Z,2.83
2022-09-16T06:01:23.497Z,2.97
2022-09-16T06:03:52.176Z,3.00
2022-09-16T06:06:25.130Z,3.00
2022-09-16T06:08:53.885Z,3.25
2022-09-16T06:11:21.718Z,2.88
2022-09-16T06:13:55.600Z,2.63
2022-09-16T06:16:23.817Z,3.00
2022-09-16T06:18:51.737Z,3.00
2022-09-16T06:21:20.973Z,2.80
2022-09-16T06:23:48.858Z,2.55
2022-09-16T06:26:19.034Z,2.67
2022-09-16T06:28:47.868Z,2.83
2022-09-16T06:31:17.673Z,4.10
2022-09-16T06:33:45.896Z,2.33
2022-09-16T06:36:15.363Z,2.60
2022-09-16T06:38:44.919Z,2.50
2022-09-16T06:41:14.333Z,2.78
2022-09-16T06:43:42.858Z,2.53
2022-09-16T06:46:13.608Z,2.70
2022-09-16T06:48:42.250Z,2.83
2022-09-16T06:51:12.509Z,3.13
2022-09-16T06:53:40.458Z,2.78
2022-09-16T06:56:11.087Z,3.00
2022-09-16T06:58:41.146Z,2.58
2022-09-16T07:01:09.258Z,2.58
2022-09-16T07:03:39.159Z,2.65
2022-09-16T07:06:07.833Z,2.22
2022-09-16T07:08:37.807Z,2.53
2022-09-16T07:11:07.463Z,2.63
2022-09-16T07:13:36.880Z,3.00
2022-09-16T07:16:14.672Z,2.97
2022-09-16T07:18:43.051Z,2.50
2022-09-16T07:21:12.725Z,2.63
2022-09-16T07:23:41.435Z,2.92
2022-09-16T07:26:10.923Z,3.10
2022-09-16T07:28:41.124Z,2.90
2022-09-16T07:31:11.130Z,2.90
2022-09-16T07:33:40.649Z,2.97
2022-09-16T07:36:09.823Z,3.20
2022-09-16T07:38:38.063Z,3.25
2022-09-16T07:41:06.921Z,2.80
2022-09-16T07:43:35.128Z,3.10
2022-09-16T07:46:04.617Z,3.03
2022-09-16T07:48:35.069Z,3.20
2022-09-16T07:51:05.378Z,3.03
2022-09-16T07:53:34.030Z,3.00
2022-09-16T07:56:03.368Z,2.95
2022-09-16T07:58:31.334Z,2.80
2022-09-16T08:01:03.996Z,3.08
2022-09-16T08:03:34.186Z,3.28
2022-09-16T08:06:03.446Z,3.47
2022-09-16T08:08:32.120Z,2.80
2022-09-16T08:11:00.453Z,2.92
2022-09-16T08:13:29.621Z,2.45
2022-09-16T08:16:01.177Z,2.50
2022-09-16T08:18:29.309Z,2.40
2022-09-16T08:20:59.383Z,2.25
2022-09-16T08:23:27.220Z,2.20
2022-09-16T08:25:58.670Z,2.00
2022-09-16T08:28:35.848Z,2.00
2022-09-16T08:31:13.906Z,2.30
2022-09-16T08:33:42.812Z,2.30
2022-09-16T08:36:15.772Z,2.37
2022-09-16T08:38:44.502Z,2.10
2022-09-16T08:41:36.052Z,1.80
2022-09-16T08:44:09.905Z,1.80
2022-09-16T08:46:44.405Z,2.00
2022-09-16T08:49:19.104Z,1.67
2022-09-16T08:51:48.453Z,1.73
2022-09-16T08:54:24.145Z,1.60
2022-09-16T08:56:52.095Z,1.70
2022-09-16T08:59:23.349Z,1.80
2022-09-16T09:01:55.860Z,1.70
2022-09-16T09:04:23.939Z,1.40
2022-09-16T09:07:00.794Z,1.75
2022-09-16T09:09:41.935Z,1.50
2022-09-16T09:12:15.216Z,1.50
2022-09-16T09:15:05.866Z,1.85
2022-09-16T09:17:48.072Z,1.40
2022-09-16T09:20:24.031Z,1.50
2022-09-16T09:23:08.769Z,1.50
2022-09-16T09:25:41.392Z,1.07
2022-09-16T09:28:24.522Z,1.40
2022-09-16T09:30:59.167Z,0.93
2022-09-16T09:33:45.999Z,1.30
2022-09-16T09:36:27.863Z,0.93
2022-09-16T09:39:07.691Z,1.08
2022-09-16T09:41:38.217Z,1.08
2022-09-16T09:44:22.453Z,1.20
2022-09-16T09:46:55.639Z,1.10
2022-09-16T09:49:29.130Z,1.33
2022-09-16T09:52:00.393Z,1.08
2022-09-16T09:54:31.449Z,1.05
2022-09-16T09:57:02.671Z,1.08
2022-09-16T09:59:33.007Z,1.20
2022-09-16T10:02:01.821Z,1.05
2022-09-16T10:04:32.736Z,1.55
2022-09-16T10:07:00.701Z,1.55
2022-09-16T10:09:29.994Z,1.30
2022-09-16T10:11:58.277Z,2.03
2022-09-16T10:14:30.970Z,1.02
2022-09-16T10:17:02.876Z,1.10
2022-09-16T10:19:32.521Z,1.60
2022-09-16T10:22:10.825Z,1.20
2022-09-16T10:24:41.974Z,1.05
2022-09-16T10:27:22.669Z,1.10
2022-09-16T10:30:05.106Z,1.20
2022-09-16T10:32:35.024Z,1.00
2022-09-16T10:35:08.029Z,0.80
2022-09-16T10:37:36.062Z,1.00
2022-09-16T10:40:07.409Z,1.27
2022-09-16T10:42:35.459Z,1.20
2022-09-16T10:45:09.692Z,1.33
2022-09-16T10:47:39.008Z,1.13
2022-09-16T10:50:08.228Z,1.10
2022-09-16T10:52:43.486Z,1.20
2022-09-16T10:55:22.800Z,1.30
2022-09-16T10:57:50.897Z,1.67
2022-09-16T11:00:20.122Z,1.80
2022-09-16T11:02:58.791Z,2.72
2022-09-16T11:05:32.476Z,3.85
2022-09-16T11:08:07.013Z,3.75
2022-09-16T11:10:40.471Z,1.70
2022-09-16T11:13:21.421Z,2.03
2022-09-16T11:16:01.228Z,1.40
2022-09-16T11:18:41.894Z,1.58
2022-09-16T11:21:35.305Z,1.27
2022-09-16T11:24:22.712Z,1.13
2022-09-16T11:26:58.183Z,1.30
2022-09-16T11:30:05.134Z,1.20
2022-09-16T11:32:47.027Z,1.17
2022-09-16T11:35:30.702Z,1.00
2022-09-16T11:38:00.962Z,1.08
2022-09-16T11:40:34.930Z,1.10
2022-09-16T11:43:16.941Z,1.33
2022-09-16T11:45:49.367Z,1.70
2022-09-16T11:48:31.052Z,1.42
2022-09-16T11:51:03.216Z,1.50
2022-09-16T11:53:47.035Z,1.35
2022-09-16T11:56:18.448Z,1.40
2022-09-16T11:58:49.732Z,1.40
2022-09-16T12:01:27.232Z,1.40
2022-09-16T12:03:57.851Z,1.25
2022-09-16T12:06:29.163Z,1.20
2022-09-16T12:09:01.852Z,1.20
2022-09-16T12:11:33.970Z,0.98
2022-09-16T12:14:09.760Z,1.10
2022-09-16T12:16:42.149Z,1.40
2022-09-16T12:19:14.604Z,3.42
2022-09-16T12:21:48.105Z,3.50
2022-09-16T12:24:21.434Z,1.77
2022-09-16T12:26:53.120Z,1.65
2022-09-16T12:29:25.253Z,1.40
2022-09-16T12:31:56.615Z,1.20
2022-09-16T12:34:28.071Z,1.90
2022-09-16T12:37:24.037Z,1.40
2022-09-16T12:39:52.080Z,1.40
2022-09-16T12:43:07.318Z,1.60
2022-09-16T12:45:48.635Z,1.10
2022-09-16T12:48:32.848Z,1.65
2022-09-16T12:51:15.343Z,1.30
2022-09-16T12:54:00.576Z,1.70
2022-09-16T12:56:41.747Z,1.33
2022-09-16T12:59:22.610Z,1.10
2022-09-16T13:01:59.026Z,1.10
2022-09-16T13:04:31.139Z,0.65
2022-09-16T13:07:00.004Z,0.90
2022-09-16T13:09:31.838Z,0.98
2022-09-16T13:12:36.838Z,1.13
2022-09-16T13:14:52.079Z,1.15
2022-09-16T13:17:30.642Z,1.30
2022-09-16T13:20:04.165Z,1.10
2022-09-16T13:22:37.532Z,1.10
2022-09-16T13:25:12.244Z,0.98
2022-09-16T13:27:41.573Z,0.93
2022-09-16T13:30:27.846Z,1.45
2022-09-16T13:33:02.594Z,1.60
2022-09-16T13:35:41.901Z,1.27
2022-09-16T13:38:24.649Z,1.27
2022-09-16T13:40:57.525Z,1.13
2022-09-16T13:43:33.411Z,1.00
2022-09-16T13:46:06.844Z,1.23
2022-09-16T13:48:41.014Z,1.40
2022-09-16T13:51:14.756Z,1.10
2022-09-16T13:53:46.211Z,0.95
2022-09-16T13:56:26.069Z,0.90
2022-09-16T13:59:02.423Z,1.10
2022-09-16T14:01:55.572Z,1.05
2022-09-16T14:04:33.354Z,0.93
2022-09-16T14:07:12.019Z,0.88
2022-09-16T14:09:48.627Z,0.93
2022-09-16T14:12:26.081Z,0.90
2022-09-16T14:14:53.997Z,1.10
2022-09-16T14:17:23.426Z,1.10
2022-09-16T14:19:55.028Z,0.90
2022-09-16T14:22:25.753Z,1.20
2022-09-16T14:25:05.767Z,1.08
2022-09-16T14:27:40.912Z,1.05
2022-09-16T14:30:16.817Z,1.08
2022-09-16T14:32:45.134Z,1.10
2022-09-16T14:35:20.183Z,1.15
2022-09-16T14:37:50.106Z,1.13
2022-09-16T14:40:21.003Z,3.47
2022-09-16T14:42:51.537Z,1.20
2022-09-16T14:45:20.000Z,1.30
2022-09-16T14:47:52.772Z,1.53
2022-09-16T14:50:23.859Z,1.13
2022-09-16T14:52:56.632Z,1.20
2022-09-16T14:55:27.076Z,1.25
2022-09-16T14:57:54.922Z,1.08
2022-09-16T15:00:25.854Z,1.27
2022-09-16T15:02:56.275Z,1.17
2022-09-16T15:05:28.860Z,1.10
2022-09-16T15:08:14.968Z,1.00
2022-09-16T15:10:54.193Z,0.98
2022-09-16T15:13:25.066Z,1.27
2022-09-16T15:15:56.096Z,0.90
2022-09-16T15:18:26.994Z,1.05
2022-09-16T15:21:06.023Z,1.08
2022-09-16T15:23:34.269Z,1.05
2022-09-16T15:26:14.462Z,1.20
2022-09-16T15:28:57.059Z,1.25
2022-09-16T15:31:34.583Z,1.40
2022-09-16T15:34:04.630Z,1.50
2022-09-16T15:36:36.232Z,1.50
2022-09-16T15:39:04.396Z,1.65
2022-09-16T15:41:32.142Z,1.80
2022-09-16T15:44:01.926Z,1.73
2022-09-16T15:46:30.866Z,1.50
2022-09-16T15:49:00.097Z,1.80
2022-09-16T15:51:35.589Z,1.70
2022-09-16T15:54:08.204Z,1.50
2022-09-16T15:56:44.447Z,1.35
2022-09-16T15:59:23.349Z,1.40
2022-09-16T16:01:53.783Z,1.35
2022-09-16T16:04:27.743Z,1.30
2022-09-16T16:06:58.327Z,1.50
2022-09-16T16:09:43.780Z,1.25
2022-09-16T16:12:13.873Z,1.58
2022-09-16T16:14:42.048Z,1.27
2022-09-16T16:17:13.966Z,1.30
2022-09-16T16:19:42.926Z,1.40
2022-09-16T16:22:12.456Z,1.65
2022-09-16T16:24:40.656Z,1.40
2022-09-16T16:27:10.041Z,1.70
2022-09-16T16:29:38.990Z,1.30
2022-09-16T16:32:08.863Z,1.40
2022-09-16T16:34:37.993Z,1.10
2022-09-16T16:37:07.320Z,1.00
2022-09-16T16:39:36.535Z,1.30
2022-09-16T16:42:05.749Z,1.00
2022-09-16T16:44:33.978Z,1.37
2022-09-16T16:47:02.608Z,1.10
2022-09-16T16:49:30.353Z,1.20
2022-09-16T16:51:58.787Z,1.08
2022-09-16T16:54:27.296Z,1.20
2022-09-16T16:56:56.949Z,1.30
2022-09-16T16:59:25.195Z,1.23
2022-09-16T17:01:54.474Z,1.40
2022-09-16T17:04:22.325Z,1.30
2022-09-16T17:07:08.271Z,1.57
2022-09-16T17:09:38.238Z,1.30
2022-09-16T17:12:08.142Z,2.55
2022-09-16T17:14:36.065Z,1.60
2022-09-16T17:17:03.872Z,1.30
2022-09-16T17:19:32.297Z,1.50
2022-09-16T17:22:00.041Z,1.23
2022-09-16T17:24:27.765Z,1.33
2022-09-16T17:26:55.510Z,1.30
2022-09-16T17:29:24.633Z,1.33
2022-09-16T17:31:52.495Z,1.20
2022-09-16T17:34:20.446Z,1.20
2022-09-16T17:36:48.537Z,1.55
2022-09-16T17:39:17.833Z,1.40
2022-09-16T17:41:48.557Z,1.20
2022-09-16T17:44:17.797Z,1.60
2022-09-16T17:46:47.434Z,1.38
2022-09-16T17:49:17.634Z,1.48
2022-09-16T17:51:45.565Z,1.90
2022-09-16T17:54:13.793Z,1.77
2022-09-16T17:56:42.486Z,1.70
2022-09-16T17:59:11.282Z,1.80
2022-09-16T18:01:39.670Z,1.83
2022-09-16T18:04:09.026Z,2.10
2022-09-16T18:06:41.942Z,2.00
2022-09-16T18:09:09.948Z,2.20
2022-09-16T18:11:38.633Z,2.00
2022-09-16T18:14:07.898Z,2.00
2022-09-16T18:16:36.117Z,2.47
2022-09-16T18:19:04.361Z,2.00
2022-09-16T18:21:33.820Z,2.25
2022-09-16T18:24:03.205Z,2.30
2022-09-16T18:26:31.879Z,2.40
2022-09-16T18:29:10.541Z,2.25
2022-09-16T18:31:40.248Z,2.67
2022-09-16T18:34:07.929Z,2.40
2022-09-16T18:36:37.590Z,2.60
2022-09-16T18:39:06.140Z,12.07
2022-09-16T18:41:36.728Z,2.85
2022-09-16T18:44:07.451Z,2.22
2022-09-16T18:46:36.874Z,2.20
2022-09-16T18:49:05.391Z,2.20
2022-09-16T18:51:34.646Z,2.60
2022-09-16T18:54:06.377Z,2.00
2022-09-16T18:56:35.876Z,2.50
2022-09-16T18:59:23.027Z,2.00
2022-09-16T19:01:52.296Z,2.22
2022-09-16T19:04:21.782Z,2.40
2022-09-16T19:06:51.478Z,2.22
2022-09-16T19:09:22.237Z,2.30
2022-09-16T19:11:50.718Z,2.50
2022-09-16T19:14:19.005Z,2.30
2022-09-16T19:16:47.224Z,2.40
2022-09-16T19:19:15.999Z,2.42
2022-09-16T19:21:44.357Z,2.30
2022-09-16T19:24:14.041Z,2.53
2022-09-16T19:26:44.423Z,3.60
2022-09-16T19:29:13.281Z,4.87
2022-09-16T19:31:42.826Z,4.15
2022-09-16T19:34:11.009Z,2.53
2022-09-16T19:36:39.596Z,2.88
2022-09-16T19:39:07.968Z,2.33
2022-09-16T19:41:37.663Z,2.60
2022-09-16T19:44:09.115Z,2.30
2022-09-16T19:46:38.507Z,2.30
2022-09-16T19:49:06.891Z,2.42
2022-09-16T19:51:34.694Z,2.20
2022-09-16T19:54:03.219Z,2.40
2022-09-16T19:56:33.222Z,2.40
2022-09-16T19:59:01.775Z,2.30
2022-09-16T20:01:33.052Z,2.30
2022-09-16T20:04:01.238Z,2.42
2022-09-16T20:06:31.718Z,2.25
2022-09-16T20:09:02.095Z,2.30
2022-09-16T20:11:32.340Z,2.30
2022-09-16T20:14:02.089Z,2.45
2022-09-16T20:16:36.579Z,2.63
2022-09-16T20:19:05.458Z,2.90
2022-09-16T20:21:35.006Z,2.83
2022-09-16T20:24:05.606Z,2.60
2022-09-16T20:26:34.102Z,2.85
2022-09-16T20:29:02.497Z,2.47
2022-09-16T20:31:33.112Z,2.97
2022-09-16T20:34:01.080Z,2.70
2022-09-16T20:36:31.013Z,3.05
2022-09-16T20:39:00.591Z,2.75
2022-09-16T20:41:29.670Z,2.47
2022-09-16T20:43:58.032Z,2.67
2022-09-16T20:46:27.788Z,2.42
2022-09-16T20:48:58.430Z,2.58
2022-09-16T20:51:28.534Z,2.53
2022-09-16T20:54:00.185Z,2.22
2022-09-16T20:56:37.463Z,2.40
2022-09-16T20:59:07.413Z,2.50
2022-09-16T21:01:35.537Z,2.20
2022-09-16T21:04:08.390Z,2.50
2022-09-16T21:06:36.802Z,2.10
2022-09-16T21:09:07.173Z,2.47
2022-09-16T21:11:35.381Z,2.10
2022-09-16T21:14:06.345Z,2.10
2022-09-16T21:16:35.982Z,2.53
2022-09-16T21:19:09.164Z,2.30
2022-09-16T21:21:37.796Z,2.60
2022-09-16T21:24:07.079Z,2.90
2022-09-16T21:26:36.451Z,3.17
2022-09-16T21:29:06.393Z,3.20
2022-09-16T21:31:34.816Z,3.50
2022-09-16T21:34:03.373Z,3.13
2022-09-16T21:36:33.643Z,3.47
2022-09-16T21:39:01.609Z,3.40
2022-09-16T21:41:29.617Z,3.30
2022-09-16T21:43:58.662Z,3.00
2022-09-16T21:46:28.676Z,2.95
2022-09-16T21:49:01.174Z,3.33
2022-09-16T21:51:34.814Z,2.97
2022-09-16T21:54:05.474Z,2.35
2022-09-16T21:56:33.509Z,3.07
2022-09-16T21:59:01.301Z,2.67
2022-09-16T22:01:31.545Z,2.85
2022-09-16T22:04:00.803Z,2.72
2022-09-16T22:06:28.778Z,2.72
2022-09-16T22:08:57.632Z,2.65
2022-09-16T22:11:28.453Z,3.00
2022-09-16T22:13:56.837Z,2.70
2022-09-16T22:16:28.776Z,2.95
2022-09-16T22:18:57.583Z,2.60
2022-09-16T22:21:27.180Z,2.40
2022-09-16T22:23:55.123Z,2.58
2022-09-16T22:26:24.181Z,2.35
2022-09-16T22:28:53.394Z,2.33
2022-09-16T22:31:23.124Z,2.40
2022-09-16T22:33:52.171Z,2.60
2022-09-16T22:36:21.876Z,2.92
2022-09-16T22:38:50.380Z,2.22
2022-09-16T22:41:18.452Z,2.58
2022-09-16T22:43:47.732Z,2.70
2022-09-16T22:46:18.308Z,2.10
2022-09-16T22:48:46.623Z,2.95
2022-09-16T22:51:15.814Z,2.83
2022-09-16T22:53:44.294Z,2.20
2022-09-16T22:56:15.298Z,2.70
2022-09-16T22:58:44.108Z,2.60
2022-09-16T23:01:14.041Z,2.67
2022-09-16T23:03:43.902Z,2.80
2022-09-16T23:06:14.764Z,2.70
2022-09-16T23:08:45.541Z,2.65
2022-09-16T23:11:14.744Z,2.60
2022-09-16T23:13:42.925Z,2.65
2022-09-16T23:16:15.110Z,2.70
2022-09-16T23:18:45.741Z,2.63
2022-09-16T23:21:15.278Z,2.55
2022-09-16T23:23:45.427Z,2.83
2022-09-16T23:26:15.200Z,3.00
2022-09-16T23:28:43.535Z,3.28
2022-09-16T23:31:13.579Z,3.00
2022-09-16T23:33:41.896Z,2.65
2022-09-16T23:36:12.643Z,2.83
2022-09-16T23:38:41.979Z,3.10
2022-09-16T23:41:11.445Z,2.92
2022-09-16T23:43:40.261Z,3.70
2022-09-16T23:46:08.262Z,2.90
2022-09-16T23:48:36.172Z,3.20
2022-09-16T23:51:04.947Z,2.95
2022-09-16T23:53:34.641Z,3.40
2022-09-16T23:56:05.932Z,3.20
2022-09-16T23:58:33.725Z,3.33
